createdAt,value
2022-08-09T00:02:17.696Z,20.00
2022-08-09T00:06:18.224Z,20.00
2022-08-09T00:10:05.719Z,19.90
2022-08-09T00:13:48.010Z,19.90
2022-08-09T00:18:05.151Z,19.80
2022-08-09T00:21:31.935Z,19.80
2022-08-09T00:25:15.084Z,19.80
2022-08-09T00:29:12.407Z,19.80
2022-08-09T00:33:07.657Z,19.80
2022-08-09T00:36:49.791Z,19.80
2022-08-09T00:40:31.831Z,19.70
2022-08-09T00:44:25.427Z,19.60
2022-08-09T00:48:08.519Z,19.60
2022-08-09T00:51:57.482Z,19.50
2022-08-09T00:56:03.686Z,19.50
2022-08-09T00:59:47.241Z,19.50
2022-08-09T01:03:50.385Z,19.50
2022-08-09T01:08:01.068Z,19.40
2022-08-09T01:11:53.447Z,19.40
2022-08-09T01:15:52.379Z,19.40
2022-08-09T01:20:03.375Z,19.40
2022-08-09T01:24:05.266Z,19.40
2022-08-09T01:27:53.251Z,19.30
2022-08-09T01:32:37.747Z,19.20
2022-08-09T01:36:08.906Z,19.20
2022-08-09T01:39:53.350Z,19.10
2022-08-09T01:43:47.925Z,19.10
2022-08-09T01:47:44.910Z,19.10
2022-08-09T01:51:33.215Z,19.10
2022-08-09T01:55:15.654Z,19.00
2022-08-09T01:59:01.569Z,19.10
2022-08-09T02:02:46.642Z,19.00
2022-08-09T02:06:58.451Z,18.90
2022-08-09T02:10:51.009Z,18.90
2022-08-09T02:14:34.301Z,18.90
2022-08-09T02:18:21.945Z,18.80
2022-08-09T02:22:11.629Z,18.80
2022-08-09T02:25:58.596Z,18.70
2022-08-09T02:29:48.540Z,18.70
2022-08-09T02:34:07.448Z,18.60
2022-08-09T02:37:45.446Z,18.60
2022-08-09T02:41:48.307Z,18.50
2022-08-09T02:45:34.200Z,18.50
2022-08-09T02:49:19.387Z,18.40
2022-08-09T02:53:26.432Z,18.40
2022-08-09T02:57:14.047Z,18.30
2022-08-09T03:01:08.213Z,18.30
2022-08-09T03:04:54.405Z,18.30
2022-08-09T03:08:39.372Z,18.20
2022-08-09T03:12:24.462Z,18.20
2022-08-09T03:16:07.765Z,18.10
2022-08-09T03:19:58.126Z,18.00
2022-08-09T03:24:03.755Z,17.90
2022-08-09T03:27:52.839Z,17.80
2022-08-09T03:31:42.478Z,17.70
2022-08-09T03:36:13.936Z,17.70
2022-08-09T03:39:38.071Z,17.60
2022-08-09T03:43:20.231Z,17.60
2022-08-09T03:47:02.577Z,17.60
2022-08-09T03:50:48.506Z,17.50
2022-08-09T03:54:38.582Z,17.60
2022-08-09T03:58:21.446Z,17.50
2022-08-09T04:02:04.280Z,17.40
2022-08-09T04:05:50.126Z,17.40
2022-08-09T04:09:44.496Z,17.30
2022-08-09T04:14:37.545Z,17.30
2022-08-09T04:17:33.723Z,17.20
2022-08-09T04:21:15.684Z,17.20
2022-08-09T04:24:59.508Z,17.20
2022-08-09T04:28:42.290Z,17.20
2022-08-09T04:32:33.638Z,17.20
2022-08-09T04:36:19.368Z,17.10
2022-08-09T04:40:02.096Z,17.00
2022-08-09T04:43:49.737Z,16.90
2022-08-09T04:48:00.984Z,16.90
2022-08-09T04:51:46.128Z,16.90
2022-08-09T04:55:28.496Z,16.90
2022-08-09T04:59:22.638Z,16.90
2022-08-09T05:03:13.368Z,17.00
2022-08-09T05:07:07.862Z,17.00
2022-08-09T05:11:02.739Z,17.00
2022-08-09T05:14:44.923Z,17.00
2022-08-09T05:18:42.537Z,17.00
2022-08-09T05:22:35.749Z,17.00
2022-08-09T05:26:36.222Z,17.10
2022-08-09T05:30:20.471Z,17.10
2022-08-09T05:34:02.479Z,17.20
2022-08-09T05:37:46.395Z,17.40
2022-08-09T05:41:32.014Z,17.50
2022-08-09T05:45:15.014Z,17.80
2022-08-09T05:48:58.902Z,18.10
2022-08-09T05:52:42.957Z,18.40
2022-08-09T05:56:26.019Z,18.80
2022-08-09T06:00:08.775Z,19.20
2022-08-09T06:03:58.004Z,19.50
2022-08-09T06:07:40.811Z,19.80
2022-08-09T06:11:24.418Z,20.10
2022-08-09T06:15:23.215Z,20.40
2022-08-09T06:19:08.511Z,20.70
2022-08-09T06:22:50.528Z,20.90
2022-08-09T06:26:34.447Z,21.20
2022-08-09T06:30:17.190Z,21.30
2022-08-09T06:33:59.940Z,21.50
2022-08-09T06:37:49.814Z,21.60
2022-08-09T06:42:08.080Z,21.80
2022-08-09T06:46:07.628Z,22.00
2022-08-09T06:50:11.983Z,22.20
2022-08-09T06:53:41.346Z,22.30
2022-08-09T06:57:25.685Z,22.40
2022-08-09T07:01:27.628Z,22.50
2022-08-09T07:06:02.419Z,22.70
2022-08-09T07:09:53.529Z,22.80
2022-08-09T07:14:04.283Z,22.80
2022-08-09T07:17:39.467Z,22.90
2022-08-09T07:21:22.065Z,23.00
2022-08-09T07:25:09.585Z,23.20
2022-08-09T07:29:01.303Z,23.30
2022-08-09T07:32:51.657Z,23.40
2022-08-09T07:36:33.834Z,23.50
2022-08-09T07:40:20.182Z,23.60
2022-08-09T07:44:07.039Z,23.70
2022-08-09T07:48:00.692Z,23.80
2022-08-09T07:52:05.878Z,23.90
2022-08-09T07:56:03.673Z,24.00
2022-08-09T08:00:02.870Z,24.10
2022-08-09T08:03:46.050Z,24.10
2022-08-09T08:08:43.082Z,24.30
2022-08-09T08:12:09.662Z,24.30
2022-08-09T08:15:37.676Z,24.50
2022-08-09T08:19:21.367Z,24.50
2022-08-09T08:23:16.046Z,24.60
2022-08-09T08:26:59.234Z,24.70
2022-08-09T08:30:41.888Z,24.80
2022-08-09T08:34:25.342Z,24.90
2022-08-09T08:38:11.345Z,25.10
2022-08-09T08:41:54.464Z,25.20
2022-08-09T08:45:53.590Z,25.10
2022-08-09T08:49:49.273Z,25.10
2022-08-09T08:53:36.792Z,25.20
2022-08-09T08:57:21.028Z,25.20
2022-08-09T09:01:09.142Z,25.20
2022-08-09T09:05:06.007Z,25.30
2022-08-09T09:08:52.932Z,25.30
2022-08-09T09:12:44.414Z,25.30
2022-08-09T09:16:35.163Z,25.30
2022-08-09T09:20:18.008Z,25.20
2022-08-09T09:24:10.438Z,25.30
2022-08-09T09:28:08.190Z,25.20
2022-08-09T09:32:04.125Z,25.10
2022-08-09T09:36:03.640Z,24.90
2022-08-09T09:39:59.566Z,24.70
2022-08-09T09:44:10.741Z,24.60
2022-08-09T09:47:56.526Z,24.50
2022-08-09T09:51:41.495Z,24.30
2022-08-09T09:55:31.970Z,24.30
2022-08-09T09:59:20.811Z,24.30
2022-08-09T10:03:09.211Z,24.30
2022-08-09T10:06:54.424Z,24.20
2022-08-09T10:10:36.860Z,24.20
2022-08-09T10:14:33.834Z,24.20
2022-08-09T10:18:16.510Z,24.20
2022-08-09T10:22:00.313Z,24.20
2022-08-09T10:26:07.375Z,24.20
2022-08-09T10:30:43.910Z,24.20
2022-08-09T10:34:10.673Z,24.20
2022-08-09T10:37:52.288Z,24.30
2022-08-09T10:41:35.983Z,24.30
2022-08-09T10:45:18.828Z,24.40
2022-08-09T10:49:07.874Z,24.40
2022-08-09T10:53:00.002Z,24.50
2022-08-09T10:56:43.472Z,24.50
2022-08-09T11:00:31.559Z,24.60
2022-08-09T11:04:20.005Z,24.60
2022-08-09T11:08:47.417Z,24.60
2022-08-09T11:12:30.460Z,24.60
2022-08-09T11:16:36.271Z,24.70
2022-08-09T11:20:37.640Z,24.70
2022-08-09T11:24:21.555Z,24.80
2022-08-09T11:28:33.689Z,24.90
2022-08-09T11:32:45.938Z,24.90
2022-08-09T11:36:42.967Z,24.90
2022-08-09T11:40:33.006Z,24.90
2022-08-09T11:44:17.850Z,25.00
2022-08-09T11:48:11.101Z,25.10
2022-08-09T11:53:02.282Z,25.10
2022-08-09T11:56:19.571Z,25.10
2022-08-09T12:00:15.854Z,25.20
2022-08-09T12:04:01.793Z,25.30
2022-08-09T12:07:43.952Z,25.30
2022-08-09T12:11:27.842Z,25.30
2022-08-09T12:15:50.503Z,25.30
2022-08-09T12:19:32.300Z,25.40
2022-08-09T12:23:14.422Z,25.50
2022-08-09T12:29:11.082Z,25.50
2022-08-09T12:31:30.930Z,25.50
2022-08-09T12:35:37.821Z,25.40
2022-08-09T12:39:22.888Z,25.50
2022-08-09T12:43:05.971Z,25.60
2022-08-09T12:46:50.088Z,25.60
2022-08-09T12:50:34.509Z,25.60
2022-08-09T12:54:17.905Z,25.60
2022-08-09T12:58:10.882Z,25.70
2022-08-09T13:02:09.413Z,25.60
2022-08-09T13:06:15.935Z,25.70
2022-08-09T13:10:03.691Z,25.80
2022-08-09T13:14:41.144Z,25.80
2022-08-09T13:18:04.900Z,25.80
2022-08-09T13:22:37.549Z,25.90
2022-08-09T13:25:54.734Z,25.90
2022-08-09T13:30:02.975Z,25.90
2022-08-09T13:33:53.154Z,25.90
2022-08-09T13:37:51.763Z,25.90
2022-08-09T13:41:59.352Z,26.00
2022-08-09T13:46:44.346Z,26.00
2022-08-09T13:49:56.091Z,26.00
2022-08-09T13:53:43.669Z,26.00
2022-08-09T13:57:36.656Z,26.00
2022-08-09T14:02:01.493Z,26.10
2022-08-09T14:05:58.266Z,26.10
2022-08-09T14:09:26.347Z,26.10
2022-08-09T14:13:12.141Z,26.20
2022-08-09T14:17:12.639Z,26.20
2022-08-09T14:20:56.501Z,26.20
2022-08-09T14:24:46.925Z,26.20
2022-08-09T14:28:36.085Z,26.30
2022-08-09T14:32:19.659Z,26.40
2022-08-09T14:36:19.759Z,26.40
2022-08-09T14:40:03.663Z,26.40
2022-08-09T14:43:47.537Z,26.40
2022-08-09T14:47:45.349Z,26.40
2022-08-09T14:51:31.384Z,26.40
2022-08-09T14:55:24.775Z,26.50
2022-08-09T14:59:08.578Z,26.50
2022-08-09T15:02:58.232Z,26.50
2022-08-09T15:06:42.082Z,26.60
2022-08-09T15:10:32.809Z,26.60
2022-08-09T15:14:14.899Z,26.60
2022-08-09T15:18:01.151Z,26.60
2022-08-09T15:21:55.794Z,26.60
2022-08-09T15:25:42.557Z,26.60
2022-08-09T15:30:58.380Z,26.60
2022-08-09T15:34:11.672Z,26.70
2022-08-09T15:37:37.067Z,26.80
2022-08-09T15:41:22.323Z,26.90
2022-08-09T15:45:06.163Z,26.90
2022-08-09T15:49:20.425Z,26.90
2022-08-09T15:52:55.147Z,27.00
2022-08-09T15:56:48.391Z,27.00
2022-08-09T16:00:31.810Z,27.10
2022-08-09T16:04:14.165Z,27.20
2022-08-09T16:07:56.762Z,27.20
2022-08-09T16:11:38.996Z,27.20
2022-08-09T16:16:10.663Z,27.20
2022-08-09T16:19:24.685Z,27.30
2022-08-09T16:23:11.244Z,27.30
2022-08-09T16:26:53.281Z,27.40
2022-08-09T16:30:38.658Z,27.40
2022-08-09T16:34:27.201Z,27.40
2022-08-09T16:38:11.112Z,27.40
2022-08-09T16:42:04.092Z,27.40
2022-08-09T16:45:46.822Z,27.40
2022-08-09T16:50:32.196Z,27.40
2022-08-09T16:53:34.290Z,27.40
2022-08-09T16:57:16.528Z,27.40
2022-08-09T17:00:58.510Z,27.40
2022-08-09T17:04:41.092Z,27.40
2022-08-09T17:08:46.511Z,27.50
2022-08-09T17:12:26.237Z,27.40
2022-08-09T17:16:08.343Z,27.50
2022-08-09T17:20:28.319Z,27.50
2022-08-09T17:24:27.489Z,27.50
2022-08-09T17:27:55.950Z,27.40
2022-08-09T17:31:38.796Z,27.40
2022-08-09T17:35:22.886Z,27.40
2022-08-09T17:39:06.221Z,27.40
2022-08-09T17:42:55.615Z,27.30
2022-08-09T17:46:41.906Z,27.30
2022-08-09T17:50:37.909Z,27.20
2022-08-09T17:54:19.877Z,27.10
2022-08-09T17:58:17.237Z,27.10
2022-08-09T18:02:11.018Z,27.00
2022-08-09T18:05:58.334Z,27.00
2022-08-09T18:09:43.676Z,26.90
2022-08-09T18:14:00.645Z,26.80
2022-08-09T18:18:03.617Z,26.80
2022-08-09T18:21:47.054Z,26.80
2022-08-09T18:25:50.135Z,26.70
2022-08-09T18:30:40.269Z,26.60
2022-08-09T18:33:36.414Z,26.50
2022-08-09T18:37:48.611Z,26.40
2022-08-09T18:41:21.806Z,26.40
2022-08-09T18:45:10.081Z,26.30
2022-08-09T18:49:03.932Z,26.20
2022-08-09T18:52:46.726Z,26.10
2022-08-09T18:56:32.982Z,26.00
2022-08-09T19:00:20.331Z,26.00
2022-08-09T19:04:08.500Z,25.90
2022-08-09T19:08:04.787Z,25.80
2022-08-09T19:11:52.831Z,25.80
2022-08-09T19:15:34.812Z,25.70
2022-08-09T19:19:23.766Z,25.70
2022-08-09T19:23:16.487Z,25.60
2022-08-09T19:26:58.847Z,25.60
2022-08-09T19:30:44.505Z,25.50
2022-08-09T19:34:26.917Z,25.40
2022-08-09T19:38:08.961Z,25.40
2022-08-09T19:41:53.382Z,25.30
2022-08-09T19:45:40.281Z,25.20
2022-08-09T19:50:07.977Z,25.10
2022-08-09T19:53:26.513Z,25.00
2022-08-09T19:57:09.336Z,24.90
2022-08-09T20:00:51.390Z,24.90
2022-08-09T20:04:37.712Z,24.80
2022-08-09T20:08:25.073Z,24.70
2022-08-09T20:12:30.002Z,24.60
2022-08-09T20:16:36.491Z,24.50
2022-08-09T20:20:21.047Z,24.50
2022-08-09T20:24:04.675Z,24.40
2022-08-09T20:27:46.586Z,24.30
2022-08-09T20:31:29.066Z,24.30
2022-08-09T20:35:12.155Z,24.10
2022-08-09T20:39:28.318Z,24.10
2022-08-09T20:43:17.977Z,24.10
2022-08-09T20:47:01.266Z,24.00
2022-08-09T20:50:46.362Z,23.90
2022-08-09T20:54:30.899Z,23.90
2022-08-09T20:58:20.603Z,23.80
2022-08-09T21:02:02.840Z,23.70
2022-08-09T21:05:55.220Z,23.60
2022-08-09T21:09:56.914Z,23.60
2022-08-09T21:13:57.770Z,23.50
2022-08-09T21:18:21.908Z,23.40
2022-08-09T21:21:57.231Z,23.40
2022-08-09T21:25:56.115Z,23.30
2022-08-09T21:29:49.119Z,23.30
2022-08-09T21:33:36.259Z,23.20
2022-08-09T21:37:18.682Z,23.10
2022-08-09T21:41:00.711Z,23.00
2022-08-09T21:44:43.571Z,22.90
2022-08-09T21:48:25.666Z,22.90
2022-08-09T21:52:16.578Z,22.80
2022-08-09T21:55:59.304Z,22.70
2022-08-09T21:59:45.478Z,22.70
2022-08-09T22:03:27.650Z,22.60
2022-08-09T22:07:09.716Z,22.60
2022-08-09T22:11:49.566Z,22.60
2022-08-09T22:14:58.102Z,22.50
2022-08-09T22:18:52.148Z,22.50
2022-08-09T22:22:36.603Z,22.40
2022-08-09T22:26:34.407Z,22.40
2022-08-09T22:30:26.045Z,22.30
2022-08-09T22:34:14.476Z,22.20
2022-08-09T22:38:03.328Z,22.10
2022-08-09T22:41:49.827Z,22.00
2022-08-09T22:48:11.357Z,21.80
2022-08-09T22:49:36.638Z,21.60
2022-08-09T22:53:22.345Z,21.50
2022-08-09T22:57:05.159Z,21.50
2022-08-09T23:00:47.115Z,21.50
2022-08-09T23:04:32.811Z,21.50
2022-08-09T23:08:33.500Z,21.50
2022-08-09T23:12:16.199Z,21.40
2022-08-09T23:16:03.159Z,21.40
2022-08-09T23:20:06.859Z,21.30
2022-08-09T23:24:01.666Z,21.30
2022-08-09T23:27:57.207Z,21.20
2022-08-09T23:31:54.319Z,21.20
2022-08-09T23:36:04.848Z,21.10
2022-08-09T23:39:38.500Z,21.10
2022-08-09T23:43:20.713Z,21.00
2022-08-09T23:47:02.690Z,21.00
2022-08-09T23:50:44.628Z,20.90
2022-08-09T23:54:27.582Z,20.90
2022-08-09T23:58:25.557Z,20.90
